Time;durP1;ratioP1;P1;durP2;ratioP2;P2;SDS_P1;SDS_P2;PMS_P1;PMS_P2;Temp;Humidity;BMP_temperature;BMP_pressure;BME280_temperature;BME280_humidity;BME280_pressure;Samples;Min_cycle;Max_cycle;Signal;HPM_P1;HPM_P2
2024/03/24 00:01:57;;;;;;;11.45;2.83;;;333.00;2329.60;;;;;;5099551;28;20362;-75
2024/03/24 00:04:23;;;;;;;7.28;3.22;;;332.80;2329.60;;;;;;5093489;28;20038;-75
2024/03/24 00:06:49;;;;;;;17.10;4.00;;;308.00;2304.00;;;;;;5095306;28;20051;-75
2024/03/24 00:09:15;;;;;;;6.07;2.33;;;332.80;2329.60;;;;;;5090952;28;20039;-75
2024/03/24 00:11:42;;;;;;;15.50;2.75;;;307.90;2304.00;;;;;;5099861;28;20028;-75
2024/03/24 00:14:08;;;;;;;5.43;1.92;;;307.90;2304.00;;;;;;5091406;28;20039;-75
2024/03/24 00:16:34;;;;;;;15.38;3.40;;;307.80;2304.00;;;;;;5098226;28;20039;-75
2024/03/24 00:19:02;;;;;;;4.30;1.30;;;307.80;2304.00;;;;;;5092299;28;20021;-75
2024/03/24 00:21:28;;;;;;;6.93;2.10;;;307.60;2304.00;;;;;;5097731;28;20020;-75
2024/03/24 00:23:54;;;;;;;3.38;1.40;;;307.60;2304.00;;;;;;5091944;28;20028;-75
2024/03/24 00:26:20;;;;;;;5.25;2.47;;;307.60;2304.00;;;;;;5090280;28;20046;-76
2024/03/24 00:28:46;;;;;;;6.72;2.20;;;307.50;2304.00;;;;;;5089153;28;20110;-74
2024/03/24 00:31:11;;;;;;;5.03;2.08;;;307.50;2304.00;;;;;;5092191;28;20024;-75
2024/03/24 00:33:37;;;;;;;6.63;1.77;;;307.40;2304.00;;;;;;5084398;28;20521;-73
2024/03/24 00:36:03;;;;;;;2.92;1.42;;;307.50;2304.00;;;;;;5094964;28;20386;-73
2024/03/24 00:38:29;;;;;;;4.07;1.98;;;307.50;2304.00;;;;;;5094841;28;20024;-73
2024/03/24 00:40:55;;;;;;;3.15;2.28;;;307.60;2304.00;;;;;;5087691;28;20071;-74
2024/03/24 00:43:21;;;;;;;9.95;2.15;;;307.60;2304.00;;;;;;5089922;28;20036;-74
2024/03/24 00:45:48;;;;;;;3.60;1.80;;;307.50;2304.00;;;;;;5088878;28;20071;-73
2024/03/24 00:48:14;;;;;;;3.42;1.83;;;307.60;2304.00;;;;;;5093965;28;20015;-74
2024/03/24 00:50:40;;;;;;;3.65;1.55;;;307.70;2304.00;;;;;;5100960;28;20028;-73
2024/03/24 00:53:05;;;;;;;2.33;1.50;;;307.60;2304.00;;;;;;5089381;28;20373;-73
2024/03/24 00:55:31;;;;;;;4.88;1.35;;;307.70;2304.00;;;;;;5094097;28;20027;-72
2024/03/24 00:57:57;;;;;;;2.30;0.90;;;307.70;2304.00;;;;;;5091318;28;20028;-76
2024/03/24 01:00:23;;;;;;;5.45;1.50;;;307.80;2304.00;;;;;;5085011;28;20410;-75
2024/03/24 01:02:50;;;;;;;5.43;1.45;;;307.60;2304.00;;;;;;5085318;28;20033;-76
2024/03/24 01:05:16;;;;;;;4.07;1.70;;;307.60;2304.00;;;;;;5094089;28;20474;-74
2024/03/24 01:07:42;;;;;;;3.00;1.77;;;307.60;2304.00;;;;;;5091774;28;20040;-75
2024/03/24 01:10:08;;;;;;;3.17;1.45;;;307.60;2304.00;;;;;;5094993;28;20057;-75
2024/03/24 01:12:34;;;;;;;2.75;1.45;;;307.60;2304.00;;;;;;5081365;28;20097;-76
2024/03/24 01:15:00;;;;;;;2.90;1.30;;;307.70;2304.00;;;;;;5089392;28;20450;-75
2024/03/24 01:17:26;;;;;;;3.17;1.50;;;307.60;2304.00;;;;;;5088951;28;20115;-75
2024/03/24 01:19:52;;;;;;;2.58;1.10;;;307.50;2304.00;;;;;;5086606;28;20099;-75
2024/03/24 01:22:18;;;;;;;2.15;1.17;;;307.40;2304.00;;;;;;5096202;28;20107;-75
2024/03/24 01:24:43;;;;;;;3.72;1.65;;;307.50;2304.00;;;;;;5095172;28;20473;-74
2024/03/24 01:27:09;;;;;;;3.38;1.30;;;307.30;2304.00;;;;;;5094464;28;20032;-76
2024/03/24 01:29:35;;;;;;;6.07;1.45;;;307.20;2304.00;;;;;;5089216;28;20484;-75
2024/03/24 01:32:01;;;;;;;2.30;1.02;;;307.20;2304.00;;;;;;5083279;28;20026;-74
2024/03/24 01:34:27;;;;;;;3.38;1.38;;;282.50;2278.40;;;;;;5095582;28;20028;-74
2024/03/24 01:36:52;;;;;;;;;;;307.20;2304.00;;;;;;5083940;28;20036;-74
2024/03/24 01:39:18;;;;;;;2.92;1.48;;;307.30;2304.00;;;;;;5088154;28;19908;-74
2024/03/24 01:41:44;;;;;;;3.42;1.38;;;307.20;2304.00;;;;;;5086119;28;20036;-77
2024/03/24 01:44:10;;;;;;;2.45;1.20;;;282.50;2278.40;;;;;;5086824;28;20063;-74
2024/03/24 01:46:36;;;;;;;3.83;1.60;;;307.40;2304.00;;;;;;5083882;28;20609;-74
2024/03/24 01:49:02;;;;;;;3.38;1.95;;;307.50;2304.00;;;;;;5091341;28;20031;-75
2024/03/24 01:51:28;;;;;;;6.38;1.10;;;307.50;2304.00;;;;;;5099425;28;20051;-74
2024/03/24 01:53:55;;;;;;;3.75;1.60;;;307.60;2304.00;;;;;;5088699;28;20016;-76
2024/03/24 01:56:20;;;;;;;3.00;1.40;;;307.60;2304.00;;;;;;5101204;28;20030;-75
2024/03/24 01:58:47;;;;;;;4.22;1.50;;;307.60;2304.00;;;;;;5088446;28;20115;-75
2024/03/24 02:01:13;;;;;;;3.05;1.50;;;307.50;2304.00;;;;;;5091326;28;20504;-75
2024/03/24 02:03:39;;;;;;;3.22;1.08;;;307.40;2304.00;;;;;;5092962;28;20470;-75
2024/03/24 02:06:05;;;;;;;3.50;1.45;;;307.40;2304.00;;;;;;5088845;28;20036;-75
2024/03/24 02:08:32;;;;;;;5.97;1.20;;;307.30;2304.00;;;;;;5076027;28;20017;-75
2024/03/24 02:10:59;;;;;;;3.28;1.30;;;307.20;2304.00;;;;;;5088462;28;20020;-75
2024/03/24 02:13:25;;;;;;;1.95;1.05;;;282.50;2278.40;;;;;;5071161;28;20043;-75
2024/03/24 02:15:54;;;;;;;1.80;0.95;;;307.20;2304.00;;;;;;5072414;28;20512;-75
2024/03/24 02:18:23;;;;;;;5.28;1.73;;;307.30;2304.00;;;;;;5070964;28;20028;-75
2024/03/24 02:20:50;;;;;;;2.00;1.10;;;307.30;2304.00;;;;;;5071500;28;20474;-75
2024/03/24 02:23:16;;;;;;;2.70;1.48;;;307.20;2304.00;;;;;;5072597;28;20027;-75
2024/03/24 02:25:42;;;;;;;5.13;1.33;;;307.20;2304.00;;;;;;5071135;28;20393;-75
2024/03/24 02:28:08;;;;;;;2.95;1.38;;;307.20;2304.00;;;;;;5070815;28;20036;-75
2024/03/24 02:30:34;;;;;;;2.13;1.20;;;307.20;2304.00;;;;;;5088053;28;20027;-74
2024/03/24 02:33:00;;;;;;;;;;;307.20;2304.00;;;;;;5093000;28;20024;-75
2024/03/24 02:35:27;;;;;;;1.95;0.95;;;282.50;2278.40;;;;;;5090967;28;19904;-75
2024/03/24 02:37:53;;;;;;;2.10;1.13;;;282.50;2278.40;;;;;;5092304;28;20036;-75
2024/03/24 02:40:19;;;;;;;3.17;1.30;;;282.50;2278.40;;;;;;5094407;28;20508;-75
2024/03/24 02:42:45;;;;;;;2.10;1.13;;;282.50;2278.40;;;;;;5094847;28;20434;-75
2024/03/24 02:45:11;;;;;;;2.55;1.02;;;282.50;2278.40;;;;;;5093664;28;20059;-76
2024/03/24 02:47:38;;;;;;;2.85;1.48;;;282.50;2278.40;;;;;;5095963;28;20469;-76
2024/03/24 02:50:05;;;;;;;3.97;1.83;;;282.30;2278.40;;;;;;5096090;28;20031;-75
2024/03/24 02:52:32;;;;;;;4.40;2.00;;;282.40;2278.40;;;;;;5096170;28;20096;-75
2024/03/24 02:54:58;;;;;;;4.90;1.70;;;282.50;2278.40;;;;;;5095823;28;20484;-75
2024/03/24 02:57:24;;;;;;;3.50;1.70;;;282.30;2278.40;;;;;;5095717;28;20050;-75
2024/03/24 02:59:50;;;;;;;2.97;1.25;;;282.40;2278.40;;;;;;5081057;28;20028;-77
2024/03/24 03:02:16;;;;;;;5.43;1.45;;;282.40;2278.40;;;;;;5094096;28;20016;-76
2024/03/24 03:04:41;;;;;;;4.40;1.67;;;282.40;2278.40;;;;;;5094636;28;20540;-74
2024/03/24 03:07:07;;;;;;;2.63;1.40;;;282.20;2278.40;;;;;;5095295;28;20028;-75
2024/03/24 03:09:33;;;;;;;6.80;1.52;;;282.30;2278.40;;;;;;5095672;28;20055;-76
2024/03/24 03:11:59;;;;;;;2.60;1.50;;;282.50;2278.40;;;;;;5089104;28;20048;-75
2024/03/24 03:14:25;;;;;;;4.93;1.80;;;282.50;2278.40;;;;;;5087047;28;20032;-75
2024/03/24 03:16:50;;;;;;;2.78;1.48;;;282.50;2278.40;;;;;;5093818;28;20091;-75
2024/03/24 03:19:16;;;;;;;4.22;2.15;;;307.20;2304.00;;;;;;5095305;28;20028;-74
2024/03/24 03:21:42;;;;;;;45.35;16.73;;;307.20;2304.00;;;;;;5093980;28;20112;-75
2024/03/24 03:24:08;;;;;;;113.60;42.25;;;282.50;2278.40;;;;;;5095733;28;20024;-75
2024/03/24 03:26:34;;;;;;;14.35;7.03;;;282.50;2278.40;;;;;;5095142;28;20448;-75
2024/03/24 03:29:00;;;;;;;9.10;4.55;;;282.50;2278.40;;;;;;5095404;28;20051;-75
2024/03/24 03:31:26;;;;;;;28.35;14.18;;;282.40;2278.40;;;;;;5093666;28;20056;-76
2024/03/24 03:33:52;;;;;;;12.07;6.20;;;282.40;2278.40;;;;;;5095172;28;20020;-75
2024/03/24 03:36:17;;;;;;;28.17;12.40;;;282.40;2278.40;;;;;;5082907;28;20069;-76
2024/03/24 03:38:43;;;;;;;10.82;5.85;;;282.50;2278.40;;;;;;5081172;28;20025;-75
2024/03/24 03:41:09;;;;;;;13.63;7.65;;;282.50;2278.40;;;;;;5088121;28;20028;-76
2024/03/24 03:43:35;;;;;;;5.70;3.88;;;282.50;2278.40;;;;;;5087705;28;20059;-74
2024/03/24 03:46:01;;;;;;;4.63;2.38;;;282.50;2278.40;;;;;;5093232;28;20416;-75
2024/03/24 03:48:27;;;;;;;4.22;2.50;;;282.40;2278.40;;;;;;5094747;28;20024;-74
2024/03/24 03:50:53;;;;;;;4.82;2.13;;;282.40;2278.40;;;;;;5094355;28;20043;-74
2024/03/24 03:53:24;;;;;;;3.35;1.95;;;282.20;2278.40;;;;;;5093394;28;20470;-75
2024/03/24 03:55:53;;;;;;;2.60;1.30;;;282.20;2278.40;;;;;;5094873;28;20485;-74
2024/03/24 03:58:20;;;;;;;3.22;1.70;;;282.30;2278.40;;;;;;5093103;28;20028;-76
2024/03/24 04:00:46;;;;;;;4.10;1.85;;;282.10;2278.40;;;;;;5093277;28;20408;-75
2024/03/24 04:03:16;;;;;;;2.85;1.40;;;282.20;2278.40;;;;;;5094327;28;20035;-75
2024/03/24 04:05:42;;;;;;;3.85;1.55;;;282.20;2278.40;;;;;;5086816;28;20028;-75
2024/03/24 04:08:09;;;;;;;3.33;1.40;;;282.20;2278.40;;;;;;5087729;28;20025;-75
2024/03/24 04:10:35;;;;;;;4.00;1.55;;;282.20;2278.40;;;;;;5093216;28;20024;-74
2024/03/24 04:13:02;;;;;;;3.28;1.85;;;282.20;2278.40;;;;;;5094089;28;20040;-76
2024/03/24 04:15:28;;;;;;;3.13;1.50;;;282.30;2278.40;;;;;;5094260;28;20016;-75
2024/03/24 04:17:54;;;;;;;2.97;1.67;;;282.20;2278.40;;;;;;5093930;28;20024;-75
2024/03/24 04:20:20;;;;;;;4.05;1.90;;;282.20;2278.40;;;;;;5093027;28;20023;-75
2024/03/24 04:22:46;;;;;;;2.80;1.65;;;282.20;2278.40;;;;;;5093048;28;20024;-76
2024/03/24 04:25:12;;;;;;;3.25;1.75;;;282.30;2278.40;;;;;;5094076;28;20016;-78
2024/03/24 04:27:38;;;;;;;5.22;2.28;;;282.30;2278.40;;;;;;5093074;28;20438;-76
2024/03/24 04:30:04;;;;;;;4.03;1.80;;;282.40;2278.40;;;;;;5094116;28;20027;-74
2024/03/24 04:32:30;;;;;;;3.35;2.10;;;282.20;2278.40;;;;;;5093764;28;20028;-74
2024/03/24 04:34:56;;;;;;;3.42;1.98;;;282.20;2278.40;;;;;;5092774;28;20539;-77
2024/03/24 04:37:22;;;;;;;4.70;1.83;;;282.10;2278.40;;;;;;5091683;28;20036;-74
2024/03/24 04:39:48;;;;;;;2.88;1.80;;;282.10;2278.40;;;;;;5094306;28;20020;-77
2024/03/24 04:42:14;;;;;;;4.03;2.15;;;282.00;2278.40;;;;;;5094057;28;20107;-76
2024/03/24 04:44:40;;;;;;;4.85;1.92;;;282.00;2278.40;;;;;;5093875;28;20033;-76
2024/03/24 04:47:06;;;;;;;2.92;1.92;;;281.70;2278.40;;;;;;5090790;28;20043;-74
2024/03/24 04:49:32;;;;;;;5.47;2.38;;;281.70;2278.40;;;;;;5084479;28;20020;-75
2024/03/24 04:51:57;;;;;;;3.45;1.88;;;256.90;2252.80;;;;;;5096870;28;20039;-75
2024/03/24 04:54:23;;;;;;;3.38;1.75;;;281.70;2278.40;;;;;;5095023;28;20020;-74
2024/03/24 04:56:49;;;;;;;3.33;1.50;;;281.70;2278.40;;;;;;5093730;28;20028;-74
2024/03/24 04:59:15;;;;;;;3.15;1.92;;;281.60;2278.40;;;;;;5093618;28;20420;-74
2024/03/24 05:01:40;;;;;;;;;;;281.60;2278.40;;;;;;5093549;28;20027;-75
2024/03/24 05:04:06;;;;;;;4.38;1.70;;;281.60;2278.40;;;;;;5092205;28;19908;-75
2024/03/24 05:06:32;;;;;;;6.22;1.77;;;256.90;2252.80;;;;;;5093462;28;20180;-75
2024/03/24 05:08:58;;;;;;;3.92;1.92;;;256.90;2252.80;;;;;;5092171;28;20020;-75
2024/03/24 05:11:25;;;;;;;2.53;1.67;;;256.90;2252.80;;;;;;5091313;28;20183;-75
2024/03/24 05:13:51;;;;;;;3.55;1.50;;;256.90;2252.80;;;;;;5083140;28;20048;-75
2024/03/24 05:16:17;;;;;;;4.20;1.98;;;256.90;2252.80;;;;;;5074126;28;20028;-75
2024/03/24 05:18:43;;;;;;;3.10;1.73;;;256.80;2252.80;;;;;;5092199;28;20047;-75
2024/03/24 05:21:09;;;;;;;6.32;2.20;;;256.80;2252.80;;;;;;5093187;28;20026;-75
2024/03/24 05:23:34;;;;;;;4.18;1.80;;;256.70;2252.80;;;;;;5093323;28;20439;-75
2024/03/24 05:26:00;;;;;;;4.40;2.03;;;256.80;2252.80;;;;;;5092868;28;20036;-74
2024/03/24 05:28:26;;;;;;;5.15;2.03;;;256.90;2252.80;;;;;;5093392;28;20020;-75
2024/03/24 05:30:52;;;;;;;4.65;1.92;;;256.80;2252.80;;;;;;5091600;28;20073;-74
2024/03/24 05:33:19;;;;;;;3.85;1.88;;;256.90;2252.80;;;;;;5093010;28;20016;-74
2024/03/24 05:35:45;;;;;;;3.03;1.65;;;256.50;2252.80;;;;;;5092746;28;20369;-74
2024/03/24 05:38:12;;;;;;;5.50;1.98;;;256.90;2252.80;;;;;;5093320;28;20024;-74
2024/03/24 05:40:41;;;;;;;2.75;1.95;;;256.80;2252.80;;;;;;5093248;28;20020;-74
2024/03/24 05:43:06;;;;;;;2.75;1.63;;;256.70;2252.80;;;;;;5091533;28;20128;-74
2024/03/24 05:45:35;;;;;;;5.55;2.30;;;256.60;2252.80;;;;;;5092484;28;20505;-74
2024/03/24 05:48:04;;;;;;;4.85;2.08;;;256.60;2252.80;;;;;;5092811;28;20024;-74
2024/03/24 05:50:30;;;;;;;5.07;1.90;;;256.50;2252.80;;;;;;5092731;28;20419;-74
2024/03/24 05:52:56;;;;;;;3.33;2.42;;;256.50;2252.80;;;;;;5093236;28;20111;-75
2024/03/24 05:55:21;;;;;;;5.22;2.42;;;256.50;2252.80;;;;;;5091280;28;20042;-75
2024/03/24 05:57:48;;;;;;;5.65;2.00;;;256.40;2252.80;;;;;;5091796;28;20024;-75
2024/03/24 06:00:14;;;;;;;4.95;2.10;;;256.30;2252.80;;;;;;5091419;28;20090;-74
2024/03/24 06:02:40;;;;;;;6.03;2.20;;;256.40;2252.80;;;;;;5092589;28;20026;-74
2024/03/24 06:05:09;;;;;;;3.22;2.10;;;256.40;2252.80;;;;;;5092795;28;20099;-74
2024/03/24 06:07:35;;;;;;;2.95;1.50;;;256.50;2252.80;;;;;;5092663;28;20482;-74
2024/03/24 06:10:03;;;;;;;3.40;1.80;;;256.50;2252.80;;;;;;5088205;28;20052;-75
2024/03/24 06:12:29;;;;;;;4.00;2.00;;;256.50;2252.80;;;;;;5082682;28;20105;-75
2024/03/24 06:14:55;;;;;;;3.20;2.00;;;256.40;2252.80;;;;;;5095806;28;20427;-76
2024/03/24 06:17:20;;;;;;;4.53;2.15;;;256.40;2252.80;;;;;;5096670;28;20020;-75
2024/03/24 06:19:46;;;;;;;4.28;2.30;;;256.40;2252.80;;;;;;5090248;28;20115;-75
2024/03/24 06:22:12;;;;;;;4.95;2.30;;;256.30;2252.80;;;;;;5089830;28;20103;-74
2024/03/24 06:24:38;;;;;;;4.65;2.08;;;256.20;2252.80;;;;;;5102531;28;20029;-74
2024/03/24 06:27:04;;;;;;;4.45;2.08;;;256.10;2252.80;;;;;;5092447;28;20036;-75
2024/03/24 06:29:30;;;;;;;5.38;2.28;;;231.30;2252.80;;;;;;5093089;28;20024;-74
2024/03/24 06:31:57;;;;;;;4.13;2.50;;;231.30;2252.80;;;;;;5089907;28;20054;-74
2024/03/24 06:34:23;;;;;;;4.95;2.22;;;231.30;2252.80;;;;;;5091164;28;20024;-81
2024/03/24 06:36:49;;;;;;;7.53;3.17;;;231.30;2252.80;;;;;;5083833;28;20028;-80
2024/03/24 06:39:15;;;;;;;10.13;4.82;;;231.30;2252.80;;;;;;5098690;28;20024;-76
2024/03/24 06:41:43;;;;;;;21.58;11.80;;;231.20;2252.80;;;;;;5086695;28;20039;-78
2024/03/24 06:44:18;;;;;;;6.05;3.58;;;231.30;2252.80;;;;;;5085562;28;20028;-76
2024/03/24 06:46:44;;;;;;;4.68;2.63;;;231.30;2252.80;;;;;;5096328;28;20123;-76
2024/03/24 06:49:11;;;;;;;72.57;35.33;;;256.00;2252.80;;;;;;5096245;28;20027;-76
2024/03/24 06:51:37;;;;;;;8.18;4.30;;;256.00;2252.80;;;;;;5092375;28;20059;-76
2024/03/24 06:54:03;;;;;;;6.63;2.70;;;256.00;2252.80;;;;;;5092048;28;20077;-75
2024/03/24 06:56:29;;;;;;;4.75;2.45;;;256.00;2252.80;;;;;;5100486;28;20043;-74
2024/03/24 06:58:55;;;;;;;11.05;2.88;;;231.30;2252.80;;;;;;5100864;28;20032;-74
2024/03/24 07:01:21;;;;;;;12.35;4.82;;;231.30;2252.80;;;;;;5095060;28;20563;-75
2024/03/24 07:03:47;;;;;;;8.05;3.38;;;231.30;2252.80;;;;;;5087252;28;20074;-74
2024/03/24 07:06:13;;;;;;;18.75;8.57;;;231.30;2252.80;;;;;;5096756;28;20378;-74
2024/03/24 07:08:41;;;;;;;4.57;2.63;;;256.10;2252.80;;;;;;5086799;28;20054;-72
2024/03/24 07:11:10;;;;;;;10.60;3.00;;;231.30;2252.80;;;;;;5088545;28;20016;-73
2024/03/24 07:13:35;;;;;;;9.05;4.15;;;256.10;2252.80;;;;;;5089393;28;20131;-72
2024/03/24 07:16:01;;;;;;;9.40;5.22;;;256.10;2252.80;;;;;;5091487;28;20051;-73
2024/03/24 07:18:27;;;;;;;15.90;7.35;;;256.30;2252.80;;;;;;5089336;28;20488;-73
2024/03/24 07:21:00;;;;;;;15.35;7.45;;;256.40;2252.80;;;;;;5090009;28;20027;-73
2024/03/24 07:23:26;;;;;;;20.67;8.85;;;256.30;2252.80;;;;;;5087613;28;20046;-74
2024/03/24 07:25:52;;;;;;;15.23;6.70;;;256.30;2252.80;;;;;;5088679;28;20103;-73
2024/03/24 07:28:18;;;;;;;12.82;6.15;;;256.30;2252.80;;;;;;5090250;28;20595;-73
2024/03/24 07:30:45;;;;;;;17.30;8.55;;;256.40;2252.80;;;;;;5099233;28;20020;-77
2024/03/24 07:33:11;;;;;;;10.48;5.13;;;256.40;2252.80;;;;;;5081930;28;20101;-74
2024/03/24 07:35:38;;;;;;;15.32;5.57;;;256.20;2252.80;;;;;;5090196;28;20032;-74
2024/03/24 07:38:04;;;;;;;8.50;5.22;;;256.00;2252.80;;;;;;5096007;28;20055;-73
2024/03/24 07:40:30;;;;;;;9.82;4.80;;;231.30;2252.80;;;;;;5097809;28;20020;-72
2024/03/24 07:42:56;;;;;;;10.07;5.50;;;231.20;2252.80;;;;;;5089587;28;20035;-74
2024/03/24 07:45:22;;;;;;;12.07;5.95;;;231.20;2252.80;;;;;;5092263;28;20480;-75
2024/03/24 07:47:49;;;;;;;8.07;4.88;;;231.30;2252.80;;;;;;5097689;28;20089;-74
2024/03/24 07:50:16;;;;;;;10.75;5.30;;;231.20;2252.80;;;;;;5087079;28;20150;-74
2024/03/24 07:52:42;;;;;;;10.27;4.65;;;231.10;2252.80;;;;;;5097555;28;20032;-73
2024/03/24 07:55:08;;;;;;;16.63;6.25;;;231.10;2252.80;;;;;;5091871;28;20020;-73
2024/03/24 07:57:34;;;;;;;11.95;6.30;;;231.10;2252.80;;;;;;5081925;28;20032;-74
2024/03/24 08:00:00;;;;;;;9.05;5.65;;;231.10;2252.80;;;;;;5102303;28;20026;-74
2024/03/24 08:02:26;;;;;;;12.48;6.22;;;231.20;2252.80;;;;;;5092834;28;20024;-74
2024/03/24 08:04:52;;;;;;;11.05;5.78;;;231.10;2252.80;;;;;;5089217;28;20029;-75
2024/03/24 08:07:18;;;;;;;10.40;5.22;;;231.10;2252.80;;;;;;5096420;28;20043;-75
2024/03/24 08:09:44;;;;;;;13.18;6.72;;;231.00;2252.80;;;;;;5097646;28;20019;-74
2024/03/24 08:12:10;;;;;;;9.75;5.25;;;231.00;2252.80;;;;;;5101658;28;20092;-74
2024/03/24 08:14:35;;;;;;;17.08;9.30;;;231.00;2252.80;;;;;;5097468;28;20035;-74
2024/03/24 08:17:01;;;;;;;10.43;5.72;;;231.00;2252.80;;;;;;5080654;28;20032;-74
2024/03/24 08:19:27;;;;;;;11.35;5.50;;;231.00;2252.80;;;;;;5098933;28;20390;-73
2024/03/24 08:21:54;;;;;;;12.73;6.43;;;231.10;2252.80;;;;;;5088702;28;20052;-72
2024/03/24 08:24:20;;;;;;;15.77;5.85;;;231.00;2252.80;;;;;;5091773;28;20020;-79
2024/03/24 08:26:45;;;;;;;11.07;6.57;;;230.90;2252.80;;;;;;5100357;28;20028;-75
2024/03/24 08:29:11;;;;;;;14.38;7.10;;;231.00;2252.80;;;;;;5088843;28;20034;-76
2024/03/24 08:31:37;;;;;;;;;;;230.90;2252.80;;;;;;5084868;28;20123;-75
2024/03/24 08:34:03;;;;;;;11.75;5.05;;;230.80;2252.80;;;;;;5085077;28;19943;-74
2024/03/24 08:36:29;;;;;;;;;;;230.80;2252.80;;;;;;5089392;28;20036;-74
2024/03/24 08:38:55;;;;;;;10.40;5.15;;;230.70;2252.80;;;;;;5077182;28;19908;-74
2024/03/24 08:41:20;;;;;;;14.40;5.40;;;230.80;2252.80;;;;;;5098374;28;20036;-73
2024/03/24 08:43:46;;;;;;;10.65;4.55;;;230.80;2252.80;;;;;;5084160;28;20083;-75
2024/03/24 08:46:13;;;;;;;;;;;230.80;2252.80;;;;;;5089532;28;20452;-75
2024/03/24 08:48:39;;;;;;;11.43;6.13;;;230.90;2252.80;;;;;;5092220;28;19908;-74
2024/03/24 08:51:05;;;;;;;15.02;6.10;;;231.00;2252.80;;;;;;5085606;28;20036;-75
2024/03/24 08:53:31;;;;;;;11.35;5.45;;;231.10;2252.80;;;;;;5089671;28;20078;-75
2024/03/24 08:55:57;;;;;;;9.85;5.18;;;231.00;2252.80;;;;;;5089257;28;20032;-74
2024/03/24 08:58:23;;;;;;;11.75;5.93;;;231.10;2252.80;;;;;;5092386;28;20036;-76
2024/03/24 09:00:52;;;;;;;;;;;231.20;2252.80;;;;;;5089647;28;20128;-75
2024/03/24 09:03:18;;;;;;;10.52;5.97;;;256.00;2252.80;;;;;;5089007;28;19923;-73
2024/03/24 09:05:44;;;;;;;12.52;7.82;;;231.30;2252.80;;;;;;5097198;28;20032;-73
2024/03/24 09:08:10;;;;;;;16.35;6.90;;;256.00;2252.80;;;;;;5096026;28;20051;-75
2024/03/24 09:10:36;;;;;;;11.57;6.53;;;256.20;2252.80;;;;;;5084017;28;20706;-74
2024/03/24 09:13:02;;;;;;;13.75;7.00;;;256.30;2252.80;;;;;;5081458;28;20347;-75
2024/03/24 09:15:28;;;;;;;11.63;5.95;;;256.40;2252.80;;;;;;5086434;28;20035;-76
2024/03/24 09:17:55;;;;;;;13.07;6.90;;;256.50;2252.80;;;;;;5083048;28;20102;-77
2024/03/24 09:20:21;;;;;;;8.40;5.07;;;256.70;2252.80;;;;;;5080123;28;20036;-75
2024/03/24 09:22:48;;;;;;;8.43;5.00;;;256.60;2252.80;;;;;;5095725;28;20028;-75
2024/03/24 09:25:14;;;;;;;9.68;5.05;;;256.80;2252.80;;;;;;5089218;28;20045;-74
2024/03/24 09:27:40;;;;;;;13.68;6.30;;;256.70;2252.80;;;;;;5096517;28;20370;-72
2024/03/24 09:30:06;;;;;;;12.88;6.20;;;256.70;2252.80;;;;;;5099837;28;20032;-73
2024/03/24 09:32:32;;;;;;;9.27;5.32;;;256.90;2252.80;;;;;;5088391;28;20035;-75
2024/03/24 09:34:58;;;;;;;11.90;6.35;;;281.80;2278.40;;;;;;5088097;28;20033;-77
2024/03/24 09:37:24;;;;;;;;;;;281.90;2278.40;;;;;;5091486;28;20024;-75
2024/03/24 09:39:50;;;;;;;21.13;12.50;;;281.70;2278.40;;;;;;5089842;28;20257;-74
2024/03/24 09:42:19;;;;;;;18.75;11.45;;;282.00;2278.40;;;;;;5086343;28;20050;-75
2024/03/24 09:44:46;;;;;;;13.65;7.22;;;282.20;2278.40;;;;;;5094859;28;20477;-74
2024/03/24 09:47:12;;;;;;;8.40;4.57;;;282.30;2278.40;;;;;;5087448;28;20073;-76
2024/03/24 09:49:40;;;;;;;9.45;4.82;;;282.20;2278.40;;;;;;5093152;28;20020;-77
2024/03/24 09:52:07;;;;;;;11.55;4.85;;;282.20;2278.40;;;;;;5090539;28;20107;-75
2024/03/24 09:54:33;;;;;;;12.52;6.00;;;282.10;2278.40;;;;;;5092532;28;20031;-77
2024/03/24 09:57:00;;;;;;;13.90;6.38;;;281.80;2278.40;;;;;;5095435;28;20036;-77
2024/03/24 09:59:28;;;;;;;7.95;4.38;;;281.70;2278.40;;;;;;5095335;28;20032;-78
2024/03/24 10:01:54;;;;;;;8.90;4.65;;;256.80;2252.80;;;;;;5089152;28;20038;-77
2024/03/24 10:04:24;;;;;;;16.45;6.47;;;256.70;2252.80;;;;;;5091268;28;20393;-77
2024/03/24 10:06:49;;;;;;;11.70;5.45;;;256.60;2252.80;;;;;;5096041;28;20039;-77
2024/03/24 10:09:15;;;;;;;12.93;6.03;;;256.60;2252.80;;;;;;5094945;28;20028;-77
2024/03/24 10:11:41;;;;;;;12.43;6.18;;;256.50;2252.80;;;;;;5092218;28;20449;-77
2024/03/24 10:14:07;;;;;;;9.98;5.05;;;256.30;2252.80;;;;;;5087136;28;20119;-77
2024/03/24 10:16:33;;;;;;;10.25;4.70;;;256.20;2252.80;;;;;;5090132;28;20032;-77
2024/03/24 10:19:13;;;;;;;9.68;4.25;;;256.10;2252.80;;;;;;5095244;28;20070;-76
2024/03/24 10:21:40;;;;;;;12.30;5.60;;;256.20;2252.80;;;;;;5093940;28;20034;-76
2024/03/24 10:24:06;;;;;;;12.40;5.22;;;256.20;2252.80;;;;;;5094033;28;20032;-76
2024/03/24 10:26:42;;;;;;;11.30;5.50;;;256.00;2252.80;;;;;;5092968;28;20044;-77
2024/03/24 10:29:08;;;;;;;14.30;6.13;;;256.10;2252.80;;;;;;5092684;28;20115;-77
2024/03/24 10:31:33;;;;;;;;;;;256.10;2252.80;;;;;;5095137;28;20392;-78
2024/03/24 10:34:02;;;;;;;15.73;7.57;;;256.20;2252.80;;;;;;5098131;28;19920;-77
2024/03/24 10:36:31;;;;;;;15.13;7.15;;;256.40;2252.80;;;;;;5109989;28;20036;-75
2024/03/24 10:38:56;;;;;;;12.57;5.50;;;256.50;2252.80;;;;;;5092369;28;20032;-75
2024/03/24 10:41:27;;;;;;;12.98;7.88;;;256.40;2252.80;;;;;;5093005;28;20039;-75
2024/03/24 10:43:53;;;;;;;22.15;11.23;;;256.40;2252.80;;;;;;5093411;28;20028;-77
2024/03/24 10:46:20;;;;;;;19.35;10.43;;;256.50;2252.80;;;;;;5097504;28;20035;-76
2024/03/24 10:48:49;;;;;;;14.10;7.95;;;256.50;2252.80;;;;;;5092976;28;20131;-76
2024/03/24 10:51:20;;;;;;;14.27;7.90;;;256.60;2252.80;;;;;;5090652;28;20013;-77
2024/03/24 10:53:48;;;;;;;13.77;6.85;;;256.60;2252.80;;;;;;5094073;28;20069;-76
2024/03/24 10:56:16;;;;;;;9.88;6.18;;;256.80;2252.80;;;;;;5101325;28;20381;-76
2024/03/24 10:58:43;;;;;;;10.65;5.50;;;256.80;2252.80;;;;;;5095533;28;20111;-73
2024/03/24 11:01:09;;;;;;;11.52;6.10;;;281.60;2278.40;;;;;;5087872;28;20069;-74
2024/03/24 11:03:37;;;;;;;10.90;5.40;;;281.70;2278.40;;;;;;5098386;28;20012;-77
2024/03/24 11:06:03;;;;;;;18.00;8.80;;;281.60;2278.40;;;;;;5090115;28;20036;-76
2024/03/24 11:08:29;;;;;;;15.00;7.57;;;256.80;2252.80;;;;;;5091774;28;20028;-76
2024/03/24 11:10:56;;;;;;;14.98;6.88;;;256.70;2252.80;;;;;;5090729;28;20068;-76
2024/03/24 11:13:26;;;;;;;15.88;7.80;;;256.70;2252.80;;;;;;5093782;28;20059;-76
2024/03/24 11:15:53;;;;;;;19.83;10.70;;;256.80;2252.80;;;;;;5089582;28;20032;-76
2024/03/24 11:18:26;;;;;;;13.10;6.55;;;281.60;2278.40;;;;;;5088394;28;20591;-78
2024/03/24 11:20:54;;;;;;;10.88;4.53;;;281.80;2278.40;;;;;;5093076;28;20051;-77
2024/03/24 11:23:22;;;;;;;5.45;3.42;;;281.90;2278.40;;;;;;5092823;28;20393;-77
2024/03/24 11:25:56;;;;;;;7.05;4.15;;;282.10;2278.40;;;;;;5096037;28;20118;-76
2024/03/24 11:28:52;;;;;;;8.70;4.50;;;282.20;2278.40;;;;;;5092493;28;20032;-76
2024/03/24 11:31:21;;;;;;;9.93;5.55;;;282.40;2278.40;;;;;;5096313;28;20031;-76
2024/03/24 11:34:06;;;;;;;9.98;4.93;;;307.20;2304.00;;;;;;5109631;27;20162;-77
2024/03/24 11:36:36;;;;;;;9.60;3.47;;;307.60;2304.00;;;;;;5091395;28;20531;-76
2024/03/24 11:39:07;;;;;;;6.55;4.30;;;308.10;2304.00;;;;;;5097357;28;20101;-76
2024/03/24 11:41:35;;;;;;;6.43;4.18;;;332.90;2329.60;;;;;;5086298;28;20141;-76
2024/03/24 11:44:03;;;;;;;6.35;3.35;;;332.90;2329.60;;;;;;5098339;28;20020;-76
2024/03/24 11:46:30;;;;;;;6.13;3.17;;;307.90;2304.00;;;;;;5098898;28;20439;-76
2024/03/24 11:48:57;;;;;;;6.82;3.90;;;307.70;2304.00;;;;;;5090951;28;20020;-77
2024/03/24 11:51:24;;;;;;;5.05;3.20;;;307.60;2304.00;;;;;;5087668;28;20039;-74
2024/03/24 11:53:51;;;;;;;8.73;4.57;;;307.60;2304.00;;;;;;5090057;28;20078;-79
2024/03/24 11:56:19;;;;;;;9.23;4.22;;;307.40;2304.00;;;;;;5087769;28;20032;-76
2024/03/24 11:58:49;;;;;;;9.05;4.07;;;307.40;2304.00;;;;;;5082631;28;20028;-75
2024/03/24 12:01:17;;;;;;;11.05;5.28;;;307.30;2304.00;;;;;;5087857;28;20039;-75
2024/03/24 12:03:42;;;;;;;10.02;5.10;;;307.50;2304.00;;;;;;5091779;28;20016;-74
2024/03/24 12:06:10;;;;;;;5.97;3.20;;;307.60;2304.00;;;;;;5089648;28;20089;-73
2024/03/24 12:08:36;;;;;;;11.50;6.78;;;307.40;2304.00;;;;;;5083561;28;20059;-74
2024/03/24 12:11:02;;;;;;;6.07;4.25;;;307.60;2304.00;;;;;;5079222;28;20434;-74
2024/03/24 12:13:28;;;;;;;6.95;3.00;;;307.60;2304.00;;;;;;5087684;28;20051;-72